createdAt,value
2022-09-11T03:59:15.095Z,20.41
2022-09-11T04:00:15.050Z,20.38
2022-09-11T04:01:15.196Z,20.42
2022-09-11T04:02:13.496Z,20.34
2022-09-11T04:03:15.079Z,20.34
2022-09-11T04:04:15.065Z,20.44
2022-09-11T04:05:15.055Z,20.46
2022-09-11T04:06:15.081Z,20.51
2022-09-11T04:07:15.068Z,20.51
2022-09-11T04:08:15.078Z,20.42
2022-09-11T04:09:15.054Z,20.44
2022-09-11T04:10:15.055Z,20.49
2022-09-11T04:11:15.071Z,20.49
2022-09-11T04:12:15.057Z,20.48
2022-09-11T04:13:15.058Z,20.54
2022-09-11T04:14:15.074Z,20.53
2022-09-11T04:15:13.427Z,20.60
2022-09-11T04:16:15.129Z,20.60
2022-09-11T04:17:15.058Z,20.64
2022-09-11T04:18:15.066Z,20.71
2022-09-11T04:19:15.093Z,20.74
2022-09-11T04:20:15.073Z,20.71
2022-09-11T04:21:15.065Z,20.76
2022-09-11T04:22:15.065Z,20.71
2022-09-11T04:23:15.066Z,20.81
2022-09-11T04:24:15.067Z,20.78
2022-09-11T04:25:15.095Z,20.76
2022-09-11T04:26:15.067Z,20.86
2022-09-11T04:27:15.071Z,20.86
2022-09-11T04:28:15.066Z,20.79
2022-09-11T04:29:15.108Z,20.88
2022-09-11T04:30:15.182Z,20.82
2022-09-11T04:31:15.128Z,20.90
2022-09-11T04:32:15.075Z,20.91
2022-09-11T04:33:15.076Z,20.88
2022-09-11T04:34:15.110Z,20.90
2022-09-11T04:35:15.079Z,21.04
2022-09-11T04:36:15.092Z,20.93
2022-09-11T04:37:15.089Z,20.98
2022-09-11T04:38:15.079Z,21.04
2022-09-11T04:39:15.092Z,21.08
2022-09-11T04:40:15.118Z,21.00
2022-09-11T04:41:15.095Z,21.11
2022-09-11T04:42:15.097Z,21.01
2022-09-11T04:43:15.085Z,21.03
2022-09-11T04:44:15.092Z,21.03
2022-09-11T04:45:15.117Z,21.01
2022-09-11T04:46:13.304Z,21.01
2022-09-11T04:47:15.102Z,21.04
2022-09-11T04:48:15.085Z,21.11
2022-09-11T04:49:15.114Z,21.06
2022-09-11T04:50:15.090Z,21.08
2022-09-11T04:51:15.113Z,21.03
2022-09-11T04:52:15.103Z,21.13
2022-09-11T04:53:15.101Z,21.13
2022-09-11T04:54:15.119Z,21.08
2022-09-11T04:55:15.123Z,21.12
2022-09-11T04:56:15.120Z,21.16
2022-09-11T04:57:15.093Z,21.16
2022-09-11T04:58:15.094Z,21.19
2022-09-11T04:59:15.112Z,21.21
2022-09-11T05:00:15.113Z,21.18
2022-09-11T05:01:15.172Z,21.19
2022-09-11T05:02:15.268Z,21.18
2022-09-11T05:03:15.122Z,21.11
2022-09-11T05:04:15.146Z,21.21
2022-09-11T05:05:15.117Z,21.27
2022-09-11T05:06:15.117Z,21.22
2022-09-11T05:07:15.162Z,21.34
2022-09-11T05:08:15.101Z,21.23
2022-09-11T05:09:15.103Z,21.28
2022-09-11T05:10:15.138Z,21.27
2022-09-11T05:11:13.206Z,21.23
2022-09-11T05:12:15.117Z,21.23
2022-09-11T05:13:13.212Z,21.33
2022-09-11T05:14:13.203Z,21.34
2022-09-11T05:15:13.193Z,21.31
2022-09-11T05:16:13.216Z,21.36
2022-09-11T05:17:15.138Z,21.33
2022-09-11T05:18:13.188Z,21.28
2022-09-11T05:19:13.192Z,21.34
2022-09-11T05:20:15.134Z,21.34
2022-09-11T05:21:13.176Z,21.38
2022-09-11T05:22:15.113Z,21.38
2022-09-11T05:23:13.189Z,21.36
2022-09-11T05:24:15.114Z,21.38
2022-09-11T05:25:14.167Z,21.33
2022-09-11T05:26:15.140Z,21.45
2022-09-11T05:27:13.158Z,21.40
2022-09-11T05:28:13.177Z,21.41
2022-09-11T05:29:13.150Z,21.41
2022-09-11T05:30:15.120Z,21.37
2022-09-11T05:31:14.654Z,21.49
2022-09-11T05:32:15.143Z,21.43
2022-09-11T05:33:14.145Z,21.43
2022-09-11T05:34:15.129Z,21.38
2022-09-11T05:35:15.153Z,21.38
2022-09-11T05:36:14.633Z,21.41
2022-09-11T05:37:14.633Z,21.45
2022-09-11T05:38:13.129Z,21.48
2022-09-11T05:39:13.125Z,21.49
2022-09-11T05:40:14.696Z,21.46
2022-09-11T05:41:14.138Z,21.49
2022-09-11T05:42:13.122Z,21.49
2022-09-11T05:43:13.125Z,21.49
2022-09-11T05:44:14.671Z,21.45
2022-09-11T05:45:13.110Z,21.46
2022-09-11T05:46:14.651Z,21.53
2022-09-11T05:47:13.097Z,21.59
2022-09-11T05:48:13.100Z,21.48
2022-09-11T05:49:14.659Z,21.51
2022-09-11T05:50:14.659Z,21.55
2022-09-11T05:51:13.092Z,21.53
2022-09-11T05:52:14.644Z,21.56
2022-09-11T05:53:14.645Z,21.59
2022-09-11T05:54:14.653Z,21.51
2022-09-11T05:55:14.683Z,21.58
2022-09-11T05:56:14.664Z,21.53
2022-09-11T05:57:14.688Z,21.53
2022-09-11T05:58:14.653Z,21.61
2022-09-11T05:59:14.650Z,21.58
2022-09-11T06:00:14.641Z,21.62
2022-09-11T06:01:14.769Z,21.52
2022-09-11T06:02:14.731Z,21.61
2022-09-11T06:03:15.504Z,21.66
2022-09-11T06:04:13.061Z,21.61
2022-09-11T06:05:13.058Z,21.67
2022-09-11T06:06:13.070Z,21.66
2022-09-11T06:07:14.687Z,21.61
2022-09-11T06:08:13.041Z,21.62
2022-09-11T06:09:13.040Z,21.66
2022-09-11T06:10:13.034Z,21.66
2022-09-11T06:11:13.024Z,21.62
2022-09-11T06:12:14.674Z,21.66
2022-09-11T06:13:13.044Z,21.70
2022-09-11T06:14:13.036Z,21.64
2022-09-11T06:15:36.278Z,21.67
2022-09-11T06:16:17.826Z,21.67
2022-09-11T06:17:13.030Z,21.67
2022-09-11T06:18:13.009Z,21.70
2022-09-11T06:19:13.017Z,21.73
2022-09-11T06:20:14.677Z,21.76
2022-09-11T06:21:13.025Z,21.71
2022-09-11T06:22:14.679Z,21.80
2022-09-11T06:23:14.689Z,21.74
2022-09-11T06:24:14.668Z,21.73
2022-09-11T06:25:14.665Z,21.77
2022-09-11T06:26:14.676Z,21.76
2022-09-11T06:27:14.680Z,21.71
2022-09-11T06:28:15.675Z,21.70
2022-09-11T06:29:14.691Z,21.76
2022-09-11T06:30:14.678Z,21.82
2022-09-11T06:31:14.670Z,21.73
2022-09-11T06:32:14.706Z,21.77
2022-09-11T06:33:12.972Z,21.78
2022-09-11T06:34:14.687Z,21.76
2022-09-11T06:35:12.959Z,21.76
2022-09-11T06:36:14.189Z,21.89
2022-09-11T06:37:12.966Z,21.74
2022-09-11T06:38:14.692Z,21.70
2022-09-11T06:39:12.974Z,21.85
2022-09-11T06:40:13.010Z,21.78
2022-09-11T06:41:12.956Z,21.78
2022-09-11T06:42:12.940Z,21.78
2022-09-11T06:43:12.945Z,21.77
2022-09-11T06:44:14.694Z,21.78
2022-09-11T06:45:12.937Z,21.86
2022-09-11T06:46:14.750Z,21.89
2022-09-11T06:47:12.925Z,21.83
2022-09-11T06:48:12.930Z,21.86
2022-09-11T06:49:12.925Z,21.86
2022-09-11T06:50:14.697Z,21.80
2022-09-11T06:51:12.925Z,21.90
2022-09-11T06:52:12.915Z,21.85
2022-09-11T06:53:14.712Z,21.89
2022-09-11T06:54:14.721Z,21.92
2022-09-11T06:55:12.924Z,21.94
2022-09-11T06:56:14.703Z,21.89
2022-09-11T06:57:12.894Z,21.93
2022-09-11T06:58:14.694Z,21.90
2022-09-11T06:59:14.725Z,21.82
2022-09-11T07:00:13.893Z,21.89
2022-09-11T07:01:14.797Z,21.90
2022-09-11T07:02:13.073Z,21.97
2022-09-11T07:03:14.708Z,21.89
2022-09-11T07:04:14.728Z,22.00
2022-09-11T07:05:12.890Z,22.05
2022-09-11T07:06:14.703Z,22.00
2022-09-11T07:07:14.729Z,21.99
2022-09-11T07:08:14.734Z,22.02
2022-09-11T07:09:15.739Z,21.96
2022-09-11T07:10:14.713Z,22.07
2022-09-11T07:11:14.700Z,22.04
2022-09-11T07:12:14.719Z,22.08
2022-09-11T07:13:14.714Z,22.04
2022-09-11T07:14:14.731Z,22.04
2022-09-11T07:15:13.861Z,22.07
2022-09-11T07:16:12.893Z,22.09
2022-09-11T07:17:14.719Z,22.11
2022-09-11T07:18:12.914Z,22.08
2022-09-11T07:19:14.753Z,22.14
2022-09-11T07:20:14.716Z,22.09
2022-09-11T07:21:12.842Z,22.09
2022-09-11T07:22:12.845Z,22.12
2022-09-11T07:23:12.827Z,22.08
2022-09-11T07:24:14.724Z,22.07
2022-09-11T07:25:14.736Z,22.11
2022-09-11T07:26:14.718Z,22.14
2022-09-11T07:27:14.243Z,22.14
2022-09-11T07:28:14.718Z,22.20
2022-09-11T07:29:14.747Z,22.16
2022-09-11T07:30:14.735Z,22.23
2022-09-11T07:31:18.684Z,22.16
2022-09-11T07:32:14.743Z,22.04
2022-09-11T07:33:14.723Z,22.22
2022-09-11T07:34:14.737Z,22.22
2022-09-11T07:35:14.722Z,22.20
2022-09-11T07:36:14.738Z,22.23
2022-09-11T07:37:14.743Z,22.23
2022-09-11T07:38:14.754Z,22.31
2022-09-11T07:39:14.790Z,22.22
2022-09-11T07:40:14.776Z,22.27
2022-09-11T07:41:14.739Z,22.15
2022-09-11T07:42:14.729Z,22.26
2022-09-11T07:43:14.741Z,22.27
2022-09-11T07:44:14.734Z,22.29
2022-09-11T07:45:14.748Z,22.23
2022-09-11T07:46:14.736Z,22.22
2022-09-11T07:47:14.831Z,22.20
2022-09-11T07:48:14.754Z,22.26
2022-09-11T07:49:14.748Z,22.20
2022-09-11T07:50:14.742Z,22.24
2022-09-11T07:51:14.761Z,22.30
2022-09-11T07:52:16.703Z,22.24
2022-09-11T07:53:12.750Z,22.31
2022-09-11T07:54:13.766Z,22.27
2022-09-11T07:55:12.795Z,22.26
2022-09-11T07:56:14.238Z,22.26
2022-09-11T07:57:14.285Z,22.24
2022-09-11T07:58:14.253Z,22.29
2022-09-11T07:59:14.266Z,22.24
2022-09-11T08:00:14.265Z,22.30
2022-09-11T08:01:14.315Z,22.38
2022-09-11T08:02:14.331Z,22.38
2022-09-11T08:03:14.266Z,22.34
2022-09-11T08:04:14.260Z,22.31
2022-09-11T08:05:14.253Z,22.36
2022-09-11T08:06:16.066Z,22.42
2022-09-11T08:07:14.286Z,22.42
2022-09-11T08:08:14.256Z,22.39
2022-09-11T08:09:14.275Z,22.46
2022-09-11T08:10:27.315Z,22.42
2022-09-11T08:11:14.281Z,22.46
2022-09-11T08:12:14.256Z,22.42
2022-09-11T08:13:14.286Z,22.46
2022-09-11T08:14:14.259Z,22.48
2022-09-11T08:15:14.268Z,22.48
2022-09-11T08:16:14.311Z,22.48
2022-09-11T08:17:14.272Z,22.55
2022-09-11T08:18:15.292Z,22.60
2022-09-11T08:19:13.689Z,22.55
2022-09-11T08:20:12.702Z,22.57
2022-09-11T08:21:13.170Z,22.61
2022-09-11T08:22:14.282Z,22.61
2022-09-11T08:23:12.687Z,22.63
2022-09-11T08:24:12.683Z,22.63
2022-09-11T08:25:12.689Z,22.69
2022-09-11T08:26:14.279Z,22.73
2022-09-11T08:27:14.280Z,22.75
2022-09-11T08:28:14.293Z,22.75
2022-09-11T08:29:13.684Z,22.85
2022-09-11T08:30:12.671Z,22.78
2022-09-11T08:31:14.318Z,22.81
2022-09-11T08:32:14.294Z,22.82
2022-09-11T08:33:12.696Z,22.82
2022-09-11T08:34:14.273Z,22.85
2022-09-11T08:35:12.657Z,22.78
2022-09-11T08:36:14.277Z,22.85
2022-09-11T08:37:14.294Z,22.81
2022-09-11T08:38:14.287Z,22.81
2022-09-11T08:39:14.296Z,22.82
2022-09-11T08:40:14.389Z,22.85
2022-09-11T08:41:14.286Z,22.82
2022-09-11T08:42:14.293Z,22.86
2022-09-11T08:43:14.284Z,22.82
2022-09-11T08:44:14.316Z,22.86
2022-09-11T08:45:12.643Z,22.86
2022-09-11T08:46:14.277Z,22.89
2022-09-11T08:47:14.293Z,22.86
2022-09-11T08:48:14.286Z,22.89
2022-09-11T08:49:14.312Z,22.91
2022-09-11T08:50:14.316Z,22.85
2022-09-11T08:51:14.304Z,22.89
2022-09-11T08:52:14.320Z,22.91
2022-09-11T08:53:13.011Z,22.86
2022-09-11T08:54:14.335Z,22.89
2022-09-11T08:55:12.649Z,22.92
2022-09-11T08:56:12.612Z,22.89
2022-09-11T08:57:12.615Z,22.96
2022-09-11T08:58:12.633Z,22.91
2022-09-11T08:59:14.327Z,22.99
2022-09-11T09:00:14.323Z,22.89
2022-09-11T09:01:14.406Z,22.91
2022-09-11T09:02:12.710Z,22.97
2022-09-11T09:03:14.305Z,23.03
2022-09-11T09:04:14.364Z,23.03
2022-09-11T09:05:14.318Z,23.00
2022-09-11T09:06:14.304Z,23.06
2022-09-11T09:07:14.302Z,23.03
2022-09-11T09:08:14.322Z,23.06
2022-09-11T09:09:14.303Z,23.10
2022-09-11T09:10:14.339Z,23.00
2022-09-11T09:11:14.309Z,23.01
2022-09-11T09:12:14.312Z,23.06
2022-09-11T09:13:14.319Z,23.04
2022-09-11T09:14:14.322Z,23.01
2022-09-11T09:15:14.337Z,23.04
2022-09-11T09:16:14.320Z,23.03
2022-09-11T09:17:12.590Z,23.06
2022-09-11T09:18:12.577Z,23.03
2022-09-11T09:19:12.611Z,23.04
2022-09-11T09:20:13.828Z,23.01
2022-09-11T09:21:12.564Z,23.06
2022-09-11T09:22:12.564Z,23.04
2022-09-11T09:23:12.574Z,23.01
2022-09-11T09:24:12.564Z,23.00
2022-09-11T09:25:14.333Z,23.03
2022-09-11T09:26:12.557Z,23.00
2022-09-11T09:27:12.552Z,23.03
2022-09-11T09:28:12.561Z,23.03
2022-09-11T09:29:12.609Z,23.01
2022-09-11T09:30:14.349Z,23.00
2022-09-11T09:31:14.388Z,23.09
2022-09-11T09:32:14.329Z,23.00
2022-09-11T09:33:14.352Z,23.01
2022-09-11T09:34:14.341Z,23.07
2022-09-11T09:35:12.549Z,23.04
2022-09-11T09:36:13.538Z,23.04
2022-09-11T09:37:14.343Z,23.09
2022-09-11T09:38:12.540Z,22.96
2022-09-11T09:39:14.331Z,23.01
2022-09-11T09:40:14.413Z,22.99
2022-09-11T09:41:12.537Z,23.06
2022-09-11T09:42:14.350Z,23.12
2022-09-11T09:43:14.335Z,23.00
2022-09-11T09:44:15.491Z,23.14
2022-09-11T09:45:14.366Z,23.06
2022-09-11T09:46:12.577Z,23.03
2022-09-11T09:47:14.358Z,23.06
2022-09-11T09:48:12.514Z,23.06
2022-09-11T09:49:14.382Z,23.07
2022-09-11T09:50:12.519Z,23.04
2022-09-11T09:51:12.511Z,23.07
2022-09-11T09:52:14.366Z,23.07
2022-09-11T09:53:12.501Z,23.10
2022-09-11T09:54:14.368Z,23.09
2022-09-11T09:55:14.357Z,23.09
2022-09-11T09:56:12.512Z,23.15
2022-09-11T09:57:12.497Z,23.10
2022-09-11T09:58:12.501Z,23.15
2022-09-11T09:59:12.501Z,23.16
2022-09-11T10:00:14.367Z,23.15
2022-09-11T10:01:16.369Z,23.19
2022-09-11T10:02:14.396Z,23.24
2022-09-11T10:13:25.483Z,23.22
2022-09-11T10:14:49.956Z,23.25
2022-09-11T10:15:25.440Z,23.25
2022-09-11T10:16:25.428Z,23.21
2022-09-11T10:17:23.813Z,23.24
2022-09-11T10:18:25.447Z,23.26
2022-09-11T10:19:23.800Z,23.26
2022-09-11T10:20:23.803Z,23.28
2022-09-11T10:21:25.452Z,23.28
2022-09-11T10:22:23.804Z,23.28
2022-09-11T10:23:23.806Z,23.44
2022-09-11T10:24:23.795Z,23.37
2022-09-11T10:25:25.447Z,23.34
2022-09-11T10:26:23.778Z,23.44
2022-09-11T10:27:27.236Z,23.44
2022-09-11T10:28:23.789Z,23.45
2022-09-11T10:29:23.783Z,23.47
2022-09-11T10:30:25.464Z,23.59
2022-09-11T10:31:23.827Z,23.59
2022-09-11T10:32:25.455Z,23.62
2022-09-11T10:33:25.474Z,23.63
2022-09-11T10:34:25.467Z,23.71
2022-09-11T10:35:25.441Z,23.71
2022-09-11T10:36:25.466Z,23.78
2022-09-11T10:37:25.442Z,23.74
2022-09-11T10:38:25.462Z,23.75
2022-09-11T10:39:25.478Z,23.74
2022-09-11T10:40:23.766Z,23.79
2022-09-11T10:41:25.468Z,23.89
2022-09-11T10:42:25.487Z,23.90
2022-09-11T10:43:25.463Z,23.92
2022-09-11T10:44:26.485Z,24.00
2022-09-11T10:45:25.455Z,24.04
2022-09-11T10:46:25.460Z,24.14
2022-09-11T10:47:25.452Z,24.24
2022-09-11T10:48:25.477Z,24.24
2022-09-11T10:49:25.457Z,24.21
2022-09-11T10:50:25.481Z,24.26
2022-09-11T10:51:23.813Z,24.40
2022-09-11T10:52:23.750Z,24.45
2022-09-11T10:53:23.808Z,24.63
2022-09-11T10:54:25.470Z,24.55
2022-09-11T10:55:25.515Z,24.69
2022-09-11T10:56:23.743Z,24.63
2022-09-11T10:57:23.752Z,24.70
2022-09-11T10:58:23.745Z,24.69
2022-09-11T10:59:23.754Z,24.83
2022-09-11T11:00:25.496Z,24.94
2022-09-11T11:01:25.521Z,25.02
2022-09-11T11:02:23.760Z,25.09
2022-09-11T11:03:23.763Z,25.07
2022-09-11T11:04:25.483Z,25.17
2022-09-11T11:05:23.741Z,25.33
2022-09-11T11:06:23.757Z,25.37
2022-09-11T11:07:25.497Z,25.41
2022-09-11T11:08:23.764Z,25.59
2022-09-11T11:09:28.991Z,25.70
2022-09-11T11:10:23.746Z,25.78
2022-09-11T11:11:25.476Z,25.89
2022-09-11T11:12:23.741Z,25.96
2022-09-11T11:13:25.491Z,26.17
2022-09-11T11:14:25.490Z,26.24
2022-09-11T11:15:28.156Z,26.37
2022-09-11T11:16:25.496Z,26.44
2022-09-11T11:17:23.752Z,26.61
2022-09-11T11:18:25.525Z,26.59
2022-09-11T11:19:25.005Z,26.81
2022-09-11T11:20:25.489Z,26.94
2022-09-11T11:21:25.492Z,27.00
2022-09-11T11:22:25.494Z,27.08
2022-09-11T11:23:25.524Z,27.23
2022-09-11T11:24:25.502Z,27.23
2022-09-11T11:25:25.504Z,27.41
2022-09-11T11:26:25.503Z,27.49
2022-09-11T11:27:25.497Z,27.59
2022-09-11T11:28:25.504Z,27.65
2022-09-11T11:29:25.532Z,27.80
2022-09-11T11:30:23.776Z,27.93
2022-09-11T11:31:24.819Z,28.09
2022-09-11T11:32:23.793Z,28.11
2022-09-11T11:33:25.504Z,28.20
2022-09-11T11:34:25.512Z,28.33
2022-09-11T11:35:23.794Z,28.43
2022-09-11T11:36:25.504Z,28.55
2022-09-11T11:37:25.506Z,28.65
2022-09-11T11:38:25.505Z,28.76
2022-09-11T11:39:25.521Z,28.83
2022-09-11T11:40:25.520Z,28.83
2022-09-11T11:41:25.558Z,28.97
2022-09-11T11:42:25.580Z,29.03
2022-09-11T11:43:25.530Z,29.11
2022-09-11T11:44:23.826Z,29.30
2022-09-11T11:45:25.525Z,29.36
2022-09-11T11:46:25.514Z,29.47
2022-09-11T11:47:25.522Z,29.51
2022-09-11T11:48:25.528Z,29.50
2022-09-11T11:49:25.534Z,29.50
2022-09-11T11:50:28.599Z,29.54
2022-09-11T11:51:25.524Z,29.52
2022-09-11T11:52:25.523Z,29.57
2022-09-11T11:53:25.528Z,29.85
2022-09-11T11:54:25.527Z,29.85
2022-09-11T11:55:25.542Z,29.97
2022-09-11T11:56:25.524Z,30.06
2022-09-11T11:57:25.550Z,30.14
2022-09-11T11:58:25.548Z,30.19
2022-09-11T11:59:25.529Z,30.34
2022-09-11T12:00:25.566Z,30.40
2022-09-11T12:01:25.539Z,30.57
2022-09-11T12:02:25.545Z,30.70
2022-09-11T12:03:25.631Z,30.81
2022-09-11T12:04:23.920Z,30.77
2022-09-11T12:05:25.586Z,30.84
2022-09-11T12:06:23.958Z,30.85
2022-09-11T12:07:23.926Z,31.03
2022-09-11T12:08:25.550Z,31.21
2022-09-11T12:09:25.552Z,31.33
2022-09-11T12:10:25.557Z,31.25
2022-09-11T12:11:25.556Z,31.28
2022-09-11T12:12:25.556Z,31.26
2022-09-11T12:13:25.545Z,31.43
2022-09-11T12:14:25.559Z,31.55
2022-09-11T12:15:25.556Z,31.78
2022-09-11T12:16:25.621Z,31.88
2022-09-11T12:17:25.569Z,32.03
2022-09-11T12:18:25.557Z,32.12
2022-09-11T12:19:26.010Z,32.27
2022-09-11T12:20:25.580Z,32.30
2022-09-11T12:21:25.547Z,32.49
2022-09-11T12:22:25.578Z,32.37
2022-09-11T12:23:25.553Z,32.25
2022-09-11T12:24:25.568Z,32.13
2022-09-11T12:25:25.588Z,32.17
2022-09-11T12:26:25.575Z,32.28
2022-09-11T12:27:25.581Z,32.32
2022-09-11T12:28:25.583Z,32.57
2022-09-11T12:29:25.565Z,32.62
2022-09-11T12:30:25.586Z,32.74
2022-09-11T12:31:25.604Z,32.76
2022-09-11T12:32:26.125Z,32.67
2022-09-11T12:33:25.577Z,32.65
2022-09-11T12:34:25.566Z,32.74
2022-09-11T12:35:25.606Z,32.72
2022-09-11T12:36:25.576Z,32.87
2022-09-11T12:37:24.069Z,33.09
2022-09-11T12:38:24.079Z,33.20
2022-09-11T12:39:24.080Z,33.43
2022-09-11T12:40:25.607Z,33.47
2022-09-11T12:41:24.093Z,33.61
2022-09-11T12:42:26.108Z,33.83
2022-09-11T12:43:25.127Z,33.92
2022-09-11T12:44:24.115Z,33.97
2022-09-11T12:45:26.142Z,34.11
2022-09-11T12:46:25.146Z,34.34
2022-09-11T12:47:26.100Z,34.26
2022-09-11T12:48:24.136Z,34.10
2022-09-11T12:49:26.099Z,33.83
2022-09-11T12:50:24.146Z,33.77
2022-09-11T12:51:24.160Z,33.75
2022-09-11T12:52:24.213Z,33.61
2022-09-11T12:53:26.107Z,33.43
2022-09-11T12:54:24.172Z,33.16
2022-09-11T12:55:26.107Z,33.05
2022-09-11T12:56:26.167Z,33.16
2022-09-11T12:57:26.149Z,33.31
2022-09-11T12:58:26.113Z,33.06
2022-09-11T12:59:26.111Z,33.32
2022-09-11T13:00:26.109Z,33.53
2022-09-11T13:01:26.243Z,33.52
2022-09-11T13:02:26.199Z,33.74
2022-09-11T13:03:26.103Z,33.83
2022-09-11T13:04:26.135Z,33.93
2022-09-11T13:05:26.144Z,34.08
2022-09-11T13:06:26.106Z,34.18
2022-09-11T13:07:24.288Z,34.36
2022-09-11T13:08:24.271Z,34.46
2022-09-11T13:09:24.263Z,34.58
2022-09-11T13:10:26.175Z,34.67
2022-09-11T13:11:26.116Z,34.78
2022-09-11T13:12:26.126Z,34.72
2022-09-11T13:13:26.114Z,34.49
2022-09-11T13:14:26.116Z,34.30
2022-09-11T13:15:26.140Z,34.22
2022-09-11T13:16:26.118Z,34.29
2022-09-11T13:17:26.155Z,34.61
2022-09-11T13:18:26.132Z,34.72
2022-09-11T13:19:26.136Z,34.83
2022-09-11T13:20:26.168Z,34.81
2022-09-11T13:21:26.524Z,34.86
2022-09-11T13:22:26.156Z,34.84
2022-09-11T13:23:26.141Z,34.72
2022-09-11T13:24:26.155Z,34.63
2022-09-11T13:25:26.130Z,34.39
2022-09-11T13:26:24.372Z,34.17
2022-09-11T13:27:26.132Z,34.22
2022-09-11T13:28:27.398Z,34.17
2022-09-11T13:29:26.168Z,34.10
2022-09-11T13:30:26.135Z,34.19
2022-09-11T13:31:26.176Z,34.39
2022-09-11T13:32:25.471Z,34.48
2022-09-11T13:33:24.409Z,34.37
2022-09-11T13:34:24.422Z,34.33
2022-09-11T13:35:24.423Z,34.34
2022-09-11T13:36:26.159Z,34.43
2022-09-11T13:37:26.157Z,34.56
2022-09-11T13:38:24.455Z,34.67
2022-09-11T13:39:24.463Z,34.84
2022-09-11T13:40:24.473Z,34.94
2022-09-11T13:41:26.170Z,35.05
2022-09-11T13:42:26.149Z,35.24
2022-09-11T13:43:26.154Z,35.23
2022-09-11T13:44:26.154Z,34.87
2022-09-11T13:45:24.535Z,34.81
2022-09-11T13:46:26.186Z,34.54
2022-09-11T13:47:26.158Z,34.59
2022-09-11T13:48:24.508Z,34.75
2022-09-11T13:49:26.177Z,34.79
2022-09-11T13:50:26.171Z,34.75
2022-09-11T13:51:26.175Z,34.51
2022-09-11T13:52:26.163Z,34.45
2022-09-11T13:53:26.166Z,34.37
2022-09-11T13:54:26.690Z,34.26
2022-09-11T13:55:26.169Z,34.17
2022-09-11T13:56:26.170Z,34.12
2022-09-11T13:57:26.175Z,34.29
2022-09-11T13:58:24.574Z,34.51
2022-09-11T13:59:26.187Z,34.66
2022-09-11T14:00:24.598Z,34.78
2022-09-11T14:01:24.607Z,34.90
2022-09-11T14:02:24.643Z,34.93
2022-09-11T14:03:26.197Z,35.12
2022-09-11T14:04:24.617Z,35.23
2022-09-11T14:05:24.632Z,35.40
2022-09-11T14:06:24.644Z,35.38
2022-09-11T14:07:26.192Z,35.47
2022-09-11T14:08:25.146Z,35.42
2022-09-11T14:09:24.662Z,35.38
2022-09-11T14:10:24.660Z,35.39
2022-09-11T14:11:24.660Z,35.39
2022-09-11T14:12:26.207Z,35.42
2022-09-11T14:13:24.676Z,35.26
2022-09-11T14:14:24.704Z,35.05
2022-09-11T14:15:24.720Z,34.89
2022-09-11T14:16:26.248Z,34.66
2022-09-11T14:17:24.700Z,34.52
2022-09-11T14:18:26.214Z,34.26
2022-09-11T14:19:24.717Z,34.10
2022-09-11T14:20:25.732Z,33.92
2022-09-11T14:21:26.714Z,33.78
2022-09-11T14:22:25.769Z,33.58
2022-09-11T14:23:26.726Z,33.37
2022-09-11T14:24:24.749Z,33.28
2022-09-11T14:25:26.714Z,33.08
2022-09-11T14:26:24.763Z,32.96
2022-09-11T14:27:26.722Z,32.79
2022-09-11T14:28:24.781Z,32.68
2022-09-11T14:29:26.718Z,32.54
2022-09-11T14:30:24.772Z,32.34
2022-09-11T14:31:26.723Z,32.23
2022-09-11T14:32:24.781Z,32.09
2022-09-11T14:33:24.790Z,32.03
2022-09-11T14:34:26.836Z,31.87
2022-09-11T14:35:24.805Z,31.72
2022-09-11T14:36:26.720Z,31.56
2022-09-11T14:37:26.759Z,31.53
2022-09-11T14:38:24.813Z,31.43
2022-09-11T14:39:26.750Z,31.38
2022-09-11T14:40:24.817Z,31.34
2022-09-11T14:41:24.837Z,31.28
2022-09-11T14:42:26.729Z,31.19
2022-09-11T14:43:26.748Z,31.15
2022-09-11T14:44:26.736Z,31.03
2022-09-11T14:45:26.725Z,30.97
2022-09-11T14:46:26.796Z,30.82
2022-09-11T14:47:26.771Z,30.91
2022-09-11T14:48:26.729Z,30.96
2022-09-11T14:49:26.740Z,31.04
2022-09-11T14:50:26.749Z,31.04
2022-09-11T14:51:26.758Z,30.99
2022-09-11T14:52:26.731Z,30.93
2022-09-11T14:53:26.749Z,30.85
2022-09-11T14:54:26.742Z,30.89
2022-09-11T14:55:26.733Z,31.06
2022-09-11T14:56:26.731Z,31.16
2022-09-11T14:57:26.810Z,31.31
2022-09-11T14:58:26.767Z,31.41
2022-09-11T14:59:26.758Z,31.52
2022-09-11T15:00:26.754Z,31.49
2022-09-11T15:01:26.811Z,31.56
2022-09-11T15:02:26.759Z,31.77
2022-09-11T15:03:26.798Z,31.71
2022-09-11T15:04:26.754Z,31.81
2022-09-11T15:05:26.769Z,31.88
2022-09-11T15:06:26.786Z,31.97
2022-09-11T15:07:26.274Z,32.00
2022-09-11T15:08:26.777Z,31.95
2022-09-11T15:09:24.935Z,32.03
2022-09-11T15:10:24.917Z,32.05
2022-09-11T15:11:24.920Z,31.90
2022-09-11T15:12:26.771Z,31.95
2022-09-11T15:13:26.292Z,31.87
2022-09-11T15:14:51.835Z,31.90
2022-09-11T15:15:26.777Z,31.90
2022-09-11T15:16:24.941Z,31.77
2022-09-11T15:17:26.763Z,31.72
2022-09-11T15:18:26.778Z,31.72
2022-09-11T15:19:26.767Z,31.56
2022-09-11T15:20:26.827Z,31.53
2022-09-11T15:21:26.838Z,31.47
2022-09-11T15:22:26.770Z,31.34
2022-09-11T15:23:26.817Z,31.36
2022-09-11T15:24:26.800Z,31.28
2022-09-11T15:25:26.804Z,31.22
2022-09-11T15:26:26.774Z,31.15
2022-09-11T15:27:26.772Z,31.04
2022-09-11T15:28:26.786Z,31.04
2022-09-11T15:29:31.215Z,30.99
2022-09-11T15:30:26.778Z,30.89
2022-09-11T15:31:26.848Z,30.89
2022-09-11T15:32:26.781Z,30.86
2022-09-11T15:33:26.793Z,30.79
2022-09-11T15:34:26.831Z,30.73
2022-09-11T15:35:29.572Z,30.64
2022-09-11T15:36:26.830Z,30.60
2022-09-11T15:37:26.794Z,30.49
2022-09-11T15:38:26.787Z,30.39
2022-09-11T15:39:26.789Z,30.34
2022-09-11T15:40:26.832Z,30.25
2022-09-11T15:41:26.789Z,30.25
2022-09-11T15:42:26.788Z,30.19
2022-09-11T15:43:26.798Z,30.07
2022-09-11T15:44:26.878Z,30.03
2022-09-11T15:45:26.899Z,30.03
2022-09-11T15:46:26.819Z,29.92
2022-09-11T15:47:25.069Z,29.82
2022-09-11T15:48:25.065Z,29.76
2022-09-11T15:49:26.829Z,29.81
2022-09-11T15:50:25.077Z,29.63
2022-09-11T15:51:25.089Z,29.61
2022-09-11T15:52:25.090Z,29.55
2022-09-11T15:53:26.816Z,29.52
2022-09-11T15:54:26.836Z,29.55
2022-09-11T15:55:25.089Z,29.42
2022-09-11T15:56:26.827Z,29.40
2022-09-11T15:57:25.106Z,29.26
2022-09-11T15:58:26.805Z,29.24
2022-09-11T15:59:26.827Z,29.13
2022-09-11T16:00:25.094Z,29.15
2022-09-11T16:12:47.962Z,28.45
2022-09-11T16:13:47.917Z,28.36
2022-09-11T16:14:47.922Z,28.33
2022-09-11T16:15:47.948Z,28.26
2022-09-11T16:16:46.388Z,28.18
2022-09-11T16:17:47.941Z,28.18
2022-09-11T16:18:46.366Z,28.18
2022-09-11T16:19:46.375Z,28.06
2022-09-11T16:20:46.370Z,28.05
2022-09-11T16:21:46.394Z,28.05
2022-09-11T16:22:47.940Z,28.01
2022-09-11T16:23:51.162Z,27.94
2022-09-11T16:24:47.952Z,27.84
2022-09-11T16:25:46.368Z,27.80
2022-09-11T16:26:47.942Z,27.76
2022-09-11T16:27:46.385Z,27.71
2022-09-11T16:28:46.392Z,27.71
2022-09-11T16:30:51.190Z,27.55
2022-09-11T16:31:46.383Z,27.59
2022-09-11T16:32:46.381Z,27.53
2022-09-11T16:33:46.398Z,27.48
2022-09-11T16:34:46.377Z,27.45
2022-09-11T16:35:48.008Z,27.42
2022-09-11T16:36:47.958Z,27.45
2022-09-11T16:37:46.384Z,27.36
2022-09-11T16:38:47.962Z,27.30
2022-09-11T16:39:48.013Z,27.31
2022-09-11T16:40:46.382Z,27.27
2022-09-11T16:41:47.954Z,27.33
2022-09-11T16:42:46.387Z,27.30
2022-09-11T16:43:47.958Z,27.26
2022-09-11T16:44:47.977Z,27.23
2022-09-11T16:45:48.026Z,27.12
2022-09-11T16:46:47.950Z,27.06
2022-09-11T16:47:47.961Z,26.99
2022-09-11T16:48:53.664Z,27.01
2022-09-11T16:50:08.348Z,27.04
2022-09-11T16:50:47.960Z,26.91
2022-09-11T16:51:46.387Z,26.96
2022-09-11T16:52:47.975Z,26.82
2022-09-11T16:53:46.393Z,26.84
2022-09-11T16:54:49.082Z,26.90
2022-09-11T16:55:46.387Z,26.82
2022-09-11T16:56:46.391Z,26.79
2022-09-11T16:57:48.013Z,26.78
2022-09-11T16:58:46.416Z,26.75
2022-09-11T16:59:47.970Z,26.63
2022-09-11T17:00:46.435Z,26.68
2022-09-11T17:01:48.070Z,26.63
2022-09-11T17:02:47.991Z,26.63
2022-09-11T17:03:46.406Z,26.61
2022-09-11T17:04:47.964Z,26.57
2022-09-11T17:05:47.985Z,26.47
2022-09-11T17:06:47.978Z,26.42
2022-09-11T17:07:47.985Z,26.45
2022-09-11T17:08:50.272Z,26.52
2022-09-11T17:09:47.972Z,26.53
2022-09-11T17:10:47.971Z,26.38
2022-09-11T17:11:47.993Z,26.38
2022-09-11T17:12:47.984Z,26.41
2022-09-11T17:13:47.987Z,26.31